PWSweather.com
Personal Weather Stations
Station Observations
PICKERING
North Yorkshire, PickeringGB

North YorkshirePickeringGB

Lat: 54.2494, Lon: -0.7725

Elevation: 192

Station Type: Oregon Scientific WMR100

High Low Average
Temperature 82.0°F27.8°C 51.6°F10.9°C 64.5°F18.1°C
Dew Point 60.8°F16.0°C 44.6°F7.0°C 52.2°F11.2°C
Winds 7.2 mph 11.6 kmh Calm Calm 3.0 mph S4.8 kmh S
Wind Gusts 12.3 mph19.8 kmh -- 5.0 mph8.0 kmh
Humidity 78% 46% 64%
Pressure 29.80 in1009.1 mb 29.62 in1003.0 mb -
Precipitation 0.00 in0.0 mm - -
Hour Temp Dew Point Humidity Winds Wind Gusts Pressure Precip Precip Rate Daily Precip Total
12:00 AM 56.5°F13.6°C 48.2°F9.0°C 71% 0.6 mph NW1.0 kmh NW 2.0 mph3.2 kmh 29.62 in1003.0 mb 0.00 in0.0 mm 0.00 in0.0 mm 0.00 in0.0 mm
12:05 AM 56.3°F13.5°C 48.2°F9.0°C 71% 0.3 mph NW0.5 kmh NW 1.6 mph2.6 kmh 29.62 in1003.0 mb 0.00 in0.0 mm 0.00 in0.0 mm 0.00 in0.0 mm
12:10 AM 56.3°F13.5°C 48.2°F9.0°C 71% 0.5 mph N0.8 kmh N 2.5 mph4.0 kmh 29.62 in1003.0 mb 0.00 in0.0 mm 0.00 in0.0 mm 0.00 in0.0 mm
12:15 AM 56.5°F13.6°C 48.2°F9.0°C 72% 1.0 mph NE1.6 kmh NE 2.9 mph4.7 kmh 29.62 in1003.0 mb 0.00 in0.0 mm 0.00 in0.0 mm 0.00 in0.0 mm
12:20 AM 56.1°F13.4°C 48.2°F9.0°C 71% 0.8 mph ENE1.3 kmh ENE 2.9 mph4.7 kmh 29.62 in1003.0 mb 0.00 in0.0 mm 0.00 in0.0 mm 0.00 in0.0 mm
12:25 AM 56.1°F13.4°C 48.2°F9.0°C 71% 0.2 mph ENE0.3 kmh ENE 0.9 mph1.4 kmh 29.65 in1004.1 mb 0.00 in0.0 mm 0.00 in0.0 mm 0.00 in0.0 mm
12:30 AM 56.1°F13.4°C 48.2°F9.0°C 72% 0.4 mph ESE0.6 kmh ESE 2.2 mph3.5 kmh 29.65 in1004.1 mb 0.00 in0.0 mm 0.00 in0.0 mm 0.00 in0.0 mm
12:35 AM 55.9°F13.3°C 48.2°F9.0°C 72% 0.7 mph SE1.1 kmh SE 2.2 mph3.5 kmh 29.65 in1004.1 mb 0.00 in0.0 mm 0.00 in0.0 mm 0.00 in0.0 mm
12:40 AM 56.1°F13.4°C 48.2°F9.0°C 72% 0.6 mph SSE1.0 kmh SSE 1.6 mph2.6 kmh 29.62 in1003.0 mb 0.00 in0.0 mm 0.00 in0.0 mm 0.00 in0.0 mm
12:45 AM 55.8°F13.2°C 48.2°F9.0°C 71% 0.2 mph SW0.3 kmh SW 1.6 mph2.6 kmh 29.62 in1003.0 mb 0.00 in0.0 mm 0.00 in0.0 mm 0.00 in0.0 mm
12:50 AM 55.6°F13.1°C 48.2°F9.0°C 72% Calm Calm -- 29.62 in1003.0 mb 0.00 in0.0 mm 0.00 in0.0 mm 0.00 in0.0 mm
12:55 AM 55.4°F13.0°C 48.2°F9.0°C 72% Calm Calm -- 29.65 in1004.1 mb 0.00 in0.0 mm 0.00 in0.0 mm 0.00 in0.0 mm
01:00 AM 55.4°F13.0°C 48.2°F9.0°C 72% 0.1 mph WSW0.2 kmh WSW 1.1 mph1.8 kmh 29.65 in1004.1 mb 0.00 in0.0 mm 0.00 in0.0 mm 0.00 in0.0 mm
01:05 AM 55.2°F12.9°C 48.2°F9.0°C 72% 0.1 mph WSW0.2 kmh WSW 1.1 mph1.8 kmh 29.65 in1004.1 mb 0.00 in0.0 mm 0.00 in0.0 mm 0.00 in0.0 mm
01:10 AM 55.0°F12.8°C 48.2°F9.0°C 72% 0.3 mph W0.5 kmh W 1.1 mph1.8 kmh 29.62 in1003.0 mb 0.00 in0.0 mm 0.00 in0.0 mm 0.00 in0.0 mm
01:15 AM 55.0°F12.8°C 48.2°F9.0°C 73% 0.3 mph WNW0.5 kmh WNW 1.1 mph1.8 kmh 29.62 in1003.0 mb 0.00 in0.0 mm 0.00 in0.0 mm 0.00 in0.0 mm
01:20 AM 55.0°F12.8°C 48.2°F9.0°C 73% 0.2 mph WSW0.3 kmh WSW 1.3 mph2.1 kmh 29.62 in1003.0 mb 0.00 in0.0 mm 0.00 in0.0 mm 0.00 in0.0 mm
01:25 AM 54.9°F12.7°C 46.4°F8.0°C 73% 0.2 mph WSW0.3 kmh WSW 1.3 mph2.1 kmh 29.65 in1004.1 mb 0.00 in0.0 mm 0.00 in0.0 mm 0.00 in0.0 mm
01:30 AM 54.9°F12.7°C 46.4°F8.0°C 73% 0.7 mph WSW1.1 kmh WSW 1.3 mph2.1 kmh 29.65 in1004.1 mb 0.00 in0.0 mm 0.00 in0.0 mm 0.00 in0.0 mm
01:35 AM 54.9°F12.7°C 46.4°F8.0°C 73% 0.5 mph SW0.8 kmh SW 1.3 mph2.1 kmh 29.65 in1004.1 mb 0.00 in0.0 mm 0.00 in0.0 mm 0.00 in0.0 mm
01:40 AM 54.9°F12.7°C 46.4°F8.0°C 73% 0.2 mph S0.3 kmh S 1.6 mph2.6 kmh 29.65 in1004.1 mb 0.00 in0.0 mm 0.00 in0.0 mm 0.00 in0.0 mm
01:45 AM 54.9°F12.7°C 46.4°F8.0°C 73% 0.4 mph S0.6 kmh S 2.2 mph3.5 kmh 29.65 in1004.1 mb 0.00 in0.0 mm 0.00 in0.0 mm 0.00 in0.0 mm
01:50 AM 54.9°F12.7°C 46.4°F8.0°C 73% 0.7 mph S1.1 kmh S 2.2 mph3.5 kmh 29.65 in1004.1 mb 0.00 in0.0 mm 0.00 in0.0 mm 0.00 in0.0 mm
01:55 AM 54.7°F12.6°C 46.4°F8.0°C 73% 1.0 mph SSW1.6 kmh SSW 2.2 mph3.5 kmh 29.65 in1004.1 mb 0.00 in0.0 mm 0.00 in0.0 mm 0.00 in0.0 mm
02:00 AM 54.7°F12.6°C 48.2°F9.0°C 74% 0.8 mph W1.3 kmh W 2.2 mph3.5 kmh 29.65 in1004.1 mb 0.00 in0.0 mm 0.00 in0.0 mm 0.00 in0.0 mm
02:05 AM 54.5°F12.5°C 48.2°F9.0°C 74% 0.4 mph NW0.6 kmh NW 2.2 mph3.5 kmh 29.65 in1004.1 mb 0.00 in0.0 mm 0.00 in0.0 mm 0.00 in0.0 mm
02:10 AM 54.1°F12.3°C 46.4°F8.0°C 73% Calm Calm -- 29.65 in1004.1 mb 0.00 in0.0 mm 0.00 in0.0 mm 0.00 in0.0 mm
02:15 AM 54.1°F12.3°C 46.4°F8.0°C 74% Calm Calm -- 29.65 in1004.1 mb 0.00 in0.0 mm 0.00 in0.0 mm 0.00 in0.0 mm
02:20 AM 54.0°F12.2°C 46.4°F8.0°C 74% 0.9 mph SSW1.4 kmh SSW 2.5 mph4.0 kmh 29.65 in1004.1 mb 0.00 in0.0 mm 0.00 in0.0 mm 0.00 in0.0 mm
02:25 AM 53.8°F12.1°C 46.4°F8.0°C 74% 1.0 mph SW1.6 kmh SW 2.5 mph4.0 kmh 29.65 in1004.1 mb 0.00 in0.0 mm 0.00 in0.0 mm 0.00 in0.0 mm
02:30 AM 53.8°F12.1°C 46.4°F8.0°C 74% 0.4 mph WSW0.6 kmh WSW 2.5 mph4.0 kmh 29.65 in1004.1 mb 0.00 in0.0 mm 0.00 in0.0 mm 0.00 in0.0 mm
02:35 AM 53.8°F12.1°C 46.4°F8.0°C 74% 0.2 mph N0.3 kmh N 2.0 mph3.2 kmh 29.65 in1004.1 mb 0.00 in0.0 mm 0.00 in0.0 mm 0.00 in0.0 mm
02:40 AM 53.6°F12.0°C 46.4°F8.0°C 74% 0.3 mph NNE0.5 kmh NNE 2.0 mph3.2 kmh 29.65 in1004.1 mb 0.00 in0.0 mm 0.00 in0.0 mm 0.00 in0.0 mm
02:45 AM 53.4°F11.9°C 46.4°F8.0°C 74% 0.5 mph NNE0.8 kmh NNE 1.6 mph2.6 kmh 29.65 in1004.1 mb 0.00 in0.0 mm 0.00 in0.0 mm 0.00 in0.0 mm
02:50 AM 53.2°F11.8°C 44.6°F7.0°C 74% 0.8 mph NNE1.3 kmh NNE 2.5 mph4.0 kmh 29.65 in1004.1 mb 0.00 in0.0 mm 0.00 in0.0 mm 0.00 in0.0 mm
02:55 AM 53.2°F11.8°C 44.6°F7.0°C 74% 0.4 mph NNE0.6 kmh NNE 2.5 mph4.0 kmh 29.65 in1004.1 mb 0.00 in0.0 mm 0.00 in0.0 mm 0.00 in0.0 mm
03:00 AM 53.1°F11.7°C 44.6°F7.0°C 74% 0.1 mph NNE0.2 kmh NNE 1.3 mph2.1 kmh 29.65 in1004.1 mb 0.00 in0.0 mm 0.00 in0.0 mm 0.00 in0.0 mm
03:05 AM 53.1°F11.7°C 44.6°F7.0°C 74% 0.2 mph NNE0.3 kmh NNE 1.3 mph2.1 kmh 29.65 in1004.1 mb 0.00 in0.0 mm 0.00 in0.0 mm 0.00 in0.0 mm
03:10 AM 52.9°F11.6°C 44.6°F7.0°C 74% 0.1 mph NNE0.2 kmh NNE 1.3 mph2.1 kmh 29.65 in1004.1 mb 0.00 in0.0 mm 0.00 in0.0 mm 0.00 in0.0 mm
03:15 AM 52.7°F11.5°C 44.6°F7.0°C 74% Calm Calm -- 29.65 in1004.1 mb 0.00 in0.0 mm 0.00 in0.0 mm 0.00 in0.0 mm
03:20 AM 52.5°F11.4°C 44.6°F7.0°C 73% Calm Calm -- 29.65 in1004.1 mb 0.00 in0.0 mm 0.00 in0.0 mm 0.00 in0.0 mm
03:25 AM 52.5°F11.4°C 44.6°F7.0°C 74% 0.1 mph NNE0.2 kmh NNE 1.3 mph2.1 kmh 29.65 in1004.1 mb 0.00 in0.0 mm 0.00 in0.0 mm 0.00 in0.0 mm
03:30 AM 52.5°F11.4°C 44.6°F7.0°C 74% 0.8 mph NNE1.3 kmh NNE 2.2 mph3.5 kmh 29.65 in1004.1 mb 0.00 in0.0 mm 0.00 in0.0 mm 0.00 in0.0 mm
03:35 AM 52.3°F11.3°C 44.6°F7.0°C 74% 0.7 mph NNE1.1 kmh NNE 2.2 mph3.5 kmh 29.65 in1004.1 mb 0.00 in0.0 mm 0.00 in0.0 mm 0.00 in0.0 mm
03:40 AM 52.2°F11.2°C 44.6°F7.0°C 74% Calm Calm -- 29.65 in1004.1 mb 0.00 in0.0 mm 0.00 in0.0 mm 0.00 in0.0 mm
03:45 AM 52.0°F11.1°C 44.6°F7.0°C 74% 0.1 mph NNE0.2 kmh NNE 2.0 mph3.2 kmh 29.65 in1004.1 mb 0.00 in0.0 mm 0.00 in0.0 mm 0.00 in0.0 mm
03:50 AM 52.0°F11.1°C 44.6°F7.0°C 74% 0.3 mph NNE0.5 kmh NNE 2.0 mph3.2 kmh 29.65 in1004.1 mb 0.00 in0.0 mm 0.00 in0.0 mm 0.00 in0.0 mm
03:55 AM 52.0°F11.1°C 44.6°F7.0°C 74% 0.2 mph NNW0.3 kmh NNW 2.0 mph3.2 kmh 29.65 in1004.1 mb 0.00 in0.0 mm 0.00 in0.0 mm 0.00 in0.0 mm
04:00 AM 51.8°F11.0°C 44.6°F7.0°C 74% 0.3 mph W0.5 kmh W 1.3 mph2.1 kmh 29.65 in1004.1 mb 0.00 in0.0 mm 0.00 in0.0 mm 0.00 in0.0 mm
04:05 AM 51.8°F11.0°C 44.6°F7.0°C 74% 0.3 mph WNW0.5 kmh WNW 1.3 mph2.1 kmh 29.65 in1004.1 mb 0.00 in0.0 mm 0.00 in0.0 mm 0.00 in0.0 mm
04:10 AM 51.6°F10.9°C 44.6°F7.0°C 74% 0.2 mph NNW0.3 kmh NNW 1.1 mph1.8 kmh 29.65 in1004.1 mb 0.00 in0.0 mm 0.00 in0.0 mm 0.00 in0.0 mm
04:15 AM 51.6°F10.9°C 44.6°F7.0°C 75% 0.2 mph NNW0.3 kmh NNW 0.9 mph1.4 kmh 29.65 in1004.1 mb 0.00 in0.0 mm 0.00 in0.0 mm 0.00 in0.0 mm
04:20 AM 51.8°F11.0°C 44.6°F7.0°C 75% 0.5 mph N0.8 kmh N 2.0 mph3.2 kmh 29.65 in1004.1 mb 0.00 in0.0 mm 0.00 in0.0 mm 0.00 in0.0 mm
04:25 AM 51.8°F11.0°C 44.6°F7.0°C 75% 1.0 mph NNW1.6 kmh NNW 2.0 mph3.2 kmh 29.65 in1004.1 mb 0.00 in0.0 mm 0.00 in0.0 mm 0.00 in0.0 mm
04:30 AM 51.8°F11.0°C 44.6°F7.0°C 75% 1.1 mph NW1.8 kmh NW 3.1 mph5.0 kmh 29.65 in1004.1 mb 0.00 in0.0 mm 0.00 in0.0 mm 0.00 in0.0 mm
04:35 AM 52.0°F11.1°C 44.6°F7.0°C 75% 1.6 mph W2.6 kmh W 5.8 mph9.3 kmh 29.65 in1004.1 mb 0.00 in0.0 mm 0.00 in0.0 mm 0.00 in0.0 mm
04:40 AM 51.8°F11.0°C 44.6°F7.0°C 75% 1.7 mph WSW2.7 kmh WSW 5.8 mph9.3 kmh 29.65 in1004.1 mb 0.00 in0.0 mm 0.00 in0.0 mm 0.00 in0.0 mm
04:45 AM 52.3°F11.3°C 44.6°F7.0°C 76% 1.5 mph WSW2.4 kmh WSW 3.1 mph5.0 kmh 29.65 in1004.1 mb 0.00 in0.0 mm 0.00 in0.0 mm 0.00 in0.0 mm
04:50 AM 52.0°F11.1°C 44.6°F7.0°C 76% 0.9 mph SW1.4 kmh SW 3.1 mph5.0 kmh 29.65 in1004.1 mb 0.00 in0.0 mm 0.00 in0.0 mm 0.00 in0.0 mm
04:55 AM 52.2°F11.2°C 44.6°F7.0°C 76% 0.9 mph SW1.4 kmh SW 2.5 mph4.0 kmh 29.68 in1005.1 mb 0.00 in0.0 mm 0.00 in0.0 mm 0.00 in0.0 mm
05:00 AM 52.3°F11.3°C 44.6°F7.0°C 76% 1.2 mph SW1.9 kmh SW 2.5 mph4.0 kmh 29.68 in1005.1 mb 0.00 in0.0 mm 0.00 in0.0 mm 0.00 in0.0 mm
05:05 AM 52.3°F11.3°C 44.6°F7.0°C 76% 0.4 mph SW0.6 kmh SW 1.6 mph2.6 kmh 29.68 in1005.1 mb 0.00 in0.0 mm 0.00 in0.0 mm 0.00 in0.0 mm
05:10 AM 52.3°F11.3°C 46.4°F8.0°C 77% 0.1 mph NNW0.2 kmh NNW 0.9 mph1.4 kmh 29.68 in1005.1 mb 0.00 in0.0 mm 0.00 in0.0 mm 0.00 in0.0 mm
05:15 AM 52.3°F11.3°C 46.4°F8.0°C 77% 0.3 mph N0.5 kmh N 1.6 mph2.6 kmh 29.68 in1005.1 mb 0.00 in0.0 mm 0.00 in0.0 mm 0.00 in0.0 mm
05:20 AM 52.3°F11.3°C 46.4°F8.0°C 77% 0.5 mph N0.8 kmh N 1.6 mph2.6 kmh 29.68 in1005.1 mb 0.00 in0.0 mm 0.00 in0.0 mm 0.00 in0.0 mm
05:25 AM 52.3°F11.3°C 46.4°F8.0°C 77% 0.5 mph NNW0.8 kmh NNW 1.1 mph1.8 kmh 29.68 in1005.1 mb 0.00 in0.0 mm 0.00 in0.0 mm 0.00 in0.0 mm
05:30 AM 52.3°F11.3°C 46.4°F8.0°C 77% 0.9 mph W1.4 kmh W 2.2 mph3.5 kmh 29.68 in1005.1 mb 0.00 in0.0 mm 0.00 in0.0 mm 0.00 in0.0 mm
05:35 AM 52.2°F11.2°C 46.4°F8.0°C 77% 1.3 mph WNW2.1 kmh WNW 2.2 mph3.5 kmh 29.68 in1005.1 mb 0.00 in0.0 mm 0.00 in0.0 mm 0.00 in0.0 mm
05:40 AM 52.3°F11.3°C 46.4°F8.0°C 77% 1.0 mph NNW1.6 kmh NNW 2.2 mph3.5 kmh 29.68 in1005.1 mb 0.00 in0.0 mm 0.00 in0.0 mm 0.00 in0.0 mm
05:45 AM 52.3°F11.3°C 46.4°F8.0°C 77% 0.5 mph N0.8 kmh N 1.1 mph1.8 kmh 29.68 in1005.1 mb 0.00 in0.0 mm 0.00 in0.0 mm 0.00 in0.0 mm
05:50 AM 52.5°F11.4°C 46.4°F8.0°C 78% 1.0 mph NNE1.6 kmh NNE 2.9 mph4.7 kmh 29.68 in1005.1 mb 0.00 in0.0 mm 0.00 in0.0 mm 0.00 in0.0 mm
05:55 AM 52.7°F11.5°C 46.4°F8.0°C 78% 1.1 mph NNE1.8 kmh NNE 2.9 mph4.7 kmh 29.68 in1005.1 mb 0.00 in0.0 mm 0.00 in0.0 mm 0.00 in0.0 mm
06:00 AM 52.7°F11.5°C 46.4°F8.0°C 78% 0.3 mph NNE0.5 kmh NNE 2.0 mph3.2 kmh 29.68 in1005.1 mb 0.00 in0.0 mm 0.00 in0.0 mm 0.00 in0.0 mm
06:05 AM 53.1°F11.7°C 46.4°F8.0°C 78% 0.1 mph WSW0.2 kmh WSW 0.9 mph1.4 kmh 29.68 in1005.1 mb 0.00 in0.0 mm 0.00 in0.0 mm 0.00 in0.0 mm
06:10 AM 53.2°F11.8°C 46.4°F8.0°C 78% 0.9 mph SW1.4 kmh SW 2.7 mph4.3 kmh 29.68 in1005.1 mb 0.00 in0.0 mm 0.00 in0.0 mm 0.00 in0.0 mm
06:15 AM 53.6°F12.0°C 48.2°F9.0°C 78% 1.7 mph WSW2.7 kmh WSW 2.7 mph4.3 kmh 29.68 in1005.1 mb 0.00 in0.0 mm 0.00 in0.0 mm 0.00 in0.0 mm
06:20 AM 53.8°F12.1°C 48.2°F9.0°C 77% 1.1 mph WSW1.8 kmh WSW 2.7 mph4.3 kmh 29.68 in1005.1 mb 0.00 in0.0 mm 0.00 in0.0 mm 0.00 in0.0 mm
06:25 AM 54.0°F12.2°C 48.2°F9.0°C 78% 0.7 mph S1.1 kmh S 2.0 mph3.2 kmh 29.71 in1006.1 mb 0.00 in0.0 mm 0.00 in0.0 mm 0.00 in0.0 mm
06:30 AM 54.1°F12.3°C 48.2°F9.0°C 78% 0.9 mph SSE1.4 kmh SSE 2.7 mph4.3 kmh 29.71 in1006.1 mb 0.00 in0.0 mm 0.00 in0.0 mm 0.00 in0.0 mm
06:35 AM 54.3°F12.4°C 48.2°F9.0°C 78% 1.5 mph SE2.4 kmh SE 2.7 mph4.3 kmh 29.71 in1006.1 mb 0.00 in0.0 mm 0.00 in0.0 mm 0.00 in0.0 mm
06:40 AM 54.5°F12.5°C 48.2°F9.0°C 78% 1.7 mph SE2.7 kmh SE 2.7 mph4.3 kmh 29.71 in1006.1 mb 0.00 in0.0 mm 0.00 in0.0 mm 0.00 in0.0 mm
06:45 AM 54.9°F12.7°C 48.2°F9.0°C 78% 1.3 mph SSE2.1 kmh SSE 2.7 mph4.3 kmh 29.71 in1006.1 mb 0.00 in0.0 mm 0.00 in0.0 mm 0.00 in0.0 mm
06:50 AM 55.0°F12.8°C 48.2°F9.0°C 78% 1.1 mph S1.8 kmh S 3.8 mph6.1 kmh 29.71 in1006.1 mb 0.00 in0.0 mm 0.00 in0.0 mm 0.00 in0.0 mm
06:55 AM 55.2°F12.9°C 48.2°F9.0°C 78% 0.7 mph S1.1 kmh S 3.8 mph6.1 kmh 29.71 in1006.1 mb 0.00 in0.0 mm 0.00 in0.0 mm 0.00 in0.0 mm
07:00 AM 55.4°F13.0°C 48.2°F9.0°C 78% 0.3 mph ESE0.5 kmh ESE 2.0 mph3.2 kmh 29.71 in1006.1 mb 0.00 in0.0 mm 0.00 in0.0 mm 0.00 in0.0 mm
07:05 AM 55.6°F13.1°C 48.2°F9.0°C 78% 0.7 mph S1.1 kmh S 2.7 mph4.3 kmh 29.71 in1006.1 mb 0.00 in0.0 mm 0.00 in0.0 mm 0.00 in0.0 mm
07:10 AM 55.8°F13.2°C 50.0°F10.0°C 78% 1.0 mph SW1.6 kmh SW 2.7 mph4.3 kmh 29.71 in1006.1 mb 0.00 in0.0 mm 0.00 in0.0 mm 0.00 in0.0 mm
07:15 AM 56.1°F13.4°C 50.0°F10.0°C 78% 0.7 mph WSW1.1 kmh WSW 2.7 mph4.3 kmh 29.71 in1006.1 mb 0.00 in0.0 mm 0.00 in0.0 mm 0.00 in0.0 mm
07:20 AM 56.3°F13.5°C 50.0°F10.0°C 78% 0.3 mph SW0.5 kmh SW 2.0 mph3.2 kmh 29.71 in1006.1 mb 0.00 in0.0 mm 0.00 in0.0 mm 0.00 in0.0 mm
07:25 AM 56.7°F13.7°C 50.0°F10.0°C 78% 0.4 mph SW0.6 kmh SW 2.0 mph3.2 kmh 29.71 in1006.1 mb 0.00 in0.0 mm 0.00 in0.0 mm 0.00 in0.0 mm
07:30 AM 57.4°F14.1°C 50.0°F10.0°C 78% 1.7 mph SW2.7 kmh SW 3.8 mph6.1 kmh 29.71 in1006.1 mb 0.00 in0.0 mm 0.00 in0.0 mm 0.00 in0.0 mm
07:35 AM 57.6°F14.2°C 51.8°F11.0°C 77% 2.2 mph SW3.5 kmh SW 3.8 mph6.1 kmh 29.71 in1006.1 mb 0.00 in0.0 mm 0.00 in0.0 mm 0.00 in0.0 mm
07:40 AM 58.5°F14.7°C 51.8°F11.0°C 77% 1.6 mph WSW2.6 kmh WSW 3.8 mph6.1 kmh 29.71 in1006.1 mb 0.00 in0.0 mm 0.00 in0.0 mm 0.00 in0.0 mm
07:45 AM 59.2°F15.1°C 51.8°F11.0°C 76% 2.6 mph WSW4.2 kmh WSW 6.3 mph10.1 kmh 29.71 in1006.1 mb 0.00 in0.0 mm 0.00 in0.0 mm 0.00 in0.0 mm
07:50 AM 60.1°F15.6°C 53.6°F12.0°C 76% 3.6 mph WSW5.8 kmh WSW 6.3 mph10.1 kmh 29.71 in1006.1 mb 0.00 in0.0 mm 0.00 in0.0 mm 0.00 in0.0 mm
07:55 AM 61.0°F16.1°C 53.6°F12.0°C 75% 2.8 mph W4.5 kmh W 4.0 mph6.4 kmh 29.71 in1006.1 mb 0.00 in0.0 mm 0.00 in0.0 mm 0.00 in0.0 mm
08:00 AM 61.2°F16.2°C 53.6°F12.0°C 75% 2.3 mph W3.7 kmh W 4.0 mph6.4 kmh 29.71 in1006.1 mb 0.00 in0.0 mm 0.00 in0.0 mm 0.00 in0.0 mm
08:05 AM 61.7°F16.5°C 55.4°F13.0°C 75% 2.0 mph W3.2 kmh W 4.0 mph6.4 kmh 29.71 in1006.1 mb 0.00 in0.0 mm 0.00 in0.0 mm 0.00 in0.0 mm
08:10 AM 62.2°F16.8°C 53.6°F12.0°C 74% 2.5 mph WSW4.0 kmh WSW 8.5 mph13.7 kmh 29.71 in1006.1 mb 0.00 in0.0 mm 0.00 in0.0 mm 0.00 in0.0 mm
08:15 AM 63.0°F17.2°C 55.4°F13.0°C 73% 3.7 mph WSW6.0 kmh WSW 8.5 mph13.7 kmh 29.71 in1006.1 mb 0.00 in0.0 mm 0.00 in0.0 mm 0.00 in0.0 mm
08:20 AM 63.7°F17.6°C 55.4°F13.0°C 72% 4.6 mph WSW7.4 kmh WSW 5.8 mph9.3 kmh 29.71 in1006.1 mb 0.00 in0.0 mm 0.00 in0.0 mm 0.00 in0.0 mm
08:25 AM 64.2°F17.9°C 55.4°F13.0°C 71% 4.9 mph WSW7.9 kmh WSW 6.3 mph10.1 kmh 29.71 in1006.1 mb 0.00 in0.0 mm 0.00 in0.0 mm 0.00 in0.0 mm
08:30 AM 64.9°F18.3°C 55.4°F13.0°C 71% 3.8 mph WSW6.1 kmh WSW 6.3 mph10.1 kmh 29.71 in1006.1 mb 0.00 in0.0 mm 0.00 in0.0 mm 0.00 in0.0 mm
08:35 AM 65.5°F18.6°C 55.4°F13.0°C 70% 3.5 mph W5.6 kmh W 7.2 mph11.6 kmh 29.71 in1006.1 mb 0.00 in0.0 mm 0.00 in0.0 mm 0.00 in0.0 mm
08:40 AM 66.4°F19.1°C 55.4°F13.0°C 68% 3.3 mph W5.3 kmh W 7.2 mph11.6 kmh 29.71 in1006.1 mb 0.00 in0.0 mm 0.00 in0.0 mm 0.00 in0.0 mm
08:45 AM 66.2°F19.0°C 55.4°F13.0°C 68% 2.9 mph WSW4.7 kmh WSW 4.7 mph7.6 kmh 29.71 in1006.1 mb 0.00 in0.0 mm 0.00 in0.0 mm 0.00 in0.0 mm
08:50 AM 66.2°F19.0°C 55.4°F13.0°C 68% 2.8 mph WSW4.5 kmh WSW 5.4 mph8.7 kmh 29.71 in1006.1 mb 0.00 in0.0 mm 0.00 in0.0 mm 0.00 in0.0 mm
08:55 AM 66.7°F19.3°C 55.4°F13.0°C 67% 3.8 mph WSW6.1 kmh WSW 6.0 mph9.7 kmh 29.71 in1006.1 mb 0.00 in0.0 mm 0.00 in0.0 mm 0.00 in0.0 mm
09:00 AM 67.6°F19.8°C 55.4°F13.0°C 66% 5.7 mph WSW9.2 kmh WSW 8.5 mph13.7 kmh 29.71 in1006.1 mb 0.00 in0.0 mm 0.00 in0.0 mm 0.00 in0.0 mm
09:05 AM 68.2°F20.1°C 55.4°F13.0°C 65% 5.4 mph WSW8.7 kmh WSW 8.5 mph13.7 kmh 29.71 in1006.1 mb 0.00 in0.0 mm 0.00 in0.0 mm 0.00 in0.0 mm
09:10 AM 69.1°F20.6°C 57.2°F14.0°C 65% 5.7 mph WSW9.2 kmh WSW 8.7 mph14.0 kmh 29.71 in1006.1 mb 0.00 in0.0 mm 0.00 in0.0 mm 0.00 in0.0 mm
09:15 AM 69.6°F20.9°C 57.2°F14.0°C 64% 6.4 mph WSW10.3 kmh WSW 8.7 mph14.0 kmh 29.71 in1006.1 mb 0.00 in0.0 mm 0.00 in0.0 mm 0.00 in0.0 mm
09:20 AM 70.7°F21.5°C 57.2°F14.0°C 63% 5.4 mph W8.7 kmh W 7.6 mph12.2 kmh 29.71 in1006.1 mb 0.00 in0.0 mm 0.00 in0.0 mm 0.00 in0.0 mm
09:25 AM 68.9°F20.5°C 55.4°F13.0°C 63% 4.7 mph W7.6 kmh W 7.6 mph12.2 kmh 29.74 in1007.1 mb 0.00 in0.0 mm 0.00 in0.0 mm 0.00 in0.0 mm
09:30 AM 69.1°F20.6°C 57.2°F14.0°C 64% 4.5 mph W7.2 kmh W 6.9 mph11.1 kmh 29.74 in1007.1 mb 0.00 in0.0 mm 0.00 in0.0 mm 0.00 in0.0 mm
09:35 AM 69.4°F20.8°C 55.4°F13.0°C 63% 4.8 mph W7.7 kmh W 7.2 mph11.6 kmh 29.74 in1007.1 mb 0.00 in0.0 mm 0.00 in0.0 mm 0.00 in0.0 mm
09:40 AM 71.6°F22.0°C 57.2°F14.0°C 60% 4.6 mph W7.4 kmh W 7.2 mph11.6 kmh 29.74 in1007.1 mb 0.00 in0.0 mm 0.00 in0.0 mm 0.00 in0.0 mm
09:45 AM 72.5°F22.5°C 59.0°F15.0°C 60% 4.7 mph W7.6 kmh W 8.1 mph13.0 kmh 29.74 in1007.1 mb 0.00 in0.0 mm 0.00 in0.0 mm 0.00 in0.0 mm
09:50 AM 73.2°F22.9°C 59.0°F15.0°C 60% 4.7 mph W7.6 kmh W 8.1 mph13.0 kmh 29.74 in1007.1 mb 0.00 in0.0 mm 0.00 in0.0 mm 0.00 in0.0 mm
09:55 AM 74.1°F23.4°C 59.0°F15.0°C 59% 3.8 mph W6.1 kmh W 6.9 mph11.1 kmh 29.74 in1007.1 mb 0.00 in0.0 mm 0.00 in0.0 mm 0.00 in0.0 mm
10:00 AM 74.8°F23.8°C 59.0°F15.0°C 58% 3.9 mph WNW6.3 kmh WNW 6.9 mph11.1 kmh 29.74 in1007.1 mb 0.00 in0.0 mm 0.00 in0.0 mm 0.00 in0.0 mm
10:05 AM 73.0°F22.8°C 57.2°F14.0°C 58% 5.4 mph W8.7 kmh W 12.3 mph19.8 kmh 29.74 in1007.1 mb 0.00 in0.0 mm 0.00 in0.0 mm 0.00 in0.0 mm
10:10 AM 75.6°F24.2°C 59.0°F15.0°C 56% 5.1 mph W8.2 kmh W 12.3 mph19.8 kmh 29.74 in1007.1 mb 0.00 in0.0 mm 0.00 in0.0 mm 0.00 in0.0 mm
10:15 AM 77.5°F25.3°C 60.8°F16.0°C 54% 3.0 mph WSW4.8 kmh WSW 4.9 mph7.9 kmh 29.74 in1007.1 mb 0.00 in0.0 mm 0.00 in0.0 mm 0.00 in0.0 mm
10:20 AM 76.1°F24.5°C 59.0°F15.0°C 55% 3.0 mph WSW4.8 kmh WSW 5.8 mph9.3 kmh 29.74 in1007.1 mb 0.00 in0.0 mm 0.00 in0.0 mm 0.00 in0.0 mm
10:25 AM 74.3°F23.5°C 57.2°F14.0°C 56% 3.7 mph WNW6.0 kmh WNW 5.8 mph9.3 kmh 29.74 in1007.1 mb 0.00 in0.0 mm 0.00 in0.0 mm 0.00 in0.0 mm
10:30 AM 73.9°F23.3°C 57.2°F14.0°C 56% 4.0 mph WNW6.4 kmh WNW 6.9 mph11.1 kmh 29.74 in1007.1 mb 0.00 in0.0 mm 0.00 in0.0 mm 0.00 in0.0 mm
10:35 AM 75.7°F24.3°C 59.0°F15.0°C 54% 3.8 mph W6.1 kmh W 6.9 mph11.1 kmh 29.74 in1007.1 mb 0.00 in0.0 mm 0.00 in0.0 mm 0.00 in0.0 mm
10:40 AM 74.1°F23.4°C 57.2°F14.0°C 56% 3.7 mph WSW6.0 kmh WSW 8.7 mph14.0 kmh 29.74 in1007.1 mb 0.00 in0.0 mm 0.00 in0.0 mm 0.00 in0.0 mm
10:45 AM 75.9°F24.4°C 59.0°F15.0°C 55% 3.7 mph WSW6.0 kmh WSW 8.7 mph14.0 kmh 29.74 in1007.1 mb 0.00 in0.0 mm 0.00 in0.0 mm 0.00 in0.0 mm
10:50 AM 77.7°F25.4°C 59.0°F15.0°C 53% 3.9 mph WSW6.3 kmh WSW 6.7 mph10.8 kmh 29.74 in1007.1 mb 0.00 in0.0 mm 0.00 in0.0 mm 0.00 in0.0 mm
10:55 AM 78.1°F25.6°C 59.0°F15.0°C 52% 3.5 mph W5.6 kmh W 6.7 mph10.8 kmh 29.74 in1007.1 mb 0.00 in0.0 mm 0.00 in0.0 mm 0.00 in0.0 mm
11:00 AM 75.7°F24.3°C 57.2°F14.0°C 53% 3.7 mph NW6.0 kmh NW 5.6 mph9.0 kmh 29.74 in1007.1 mb 0.00 in0.0 mm 0.00 in0.0 mm 0.00 in0.0 mm
11:05 AM 75.4°F24.1°C 57.2°F14.0°C 53% 3.6 mph NW5.8 kmh NW 5.6 mph9.0 kmh 29.74 in1007.1 mb 0.00 in0.0 mm 0.00 in0.0 mm 0.00 in0.0 mm
11:10 AM 74.5°F23.6°C 57.2°F14.0°C 53% 2.5 mph W4.0 kmh W 4.0 mph6.4 kmh 29.74 in1007.1 mb 0.00 in0.0 mm 0.00 in0.0 mm 0.00 in0.0 mm
11:15 AM 74.5°F23.6°C 57.2°F14.0°C 54% 2.3 mph WNW3.7 kmh WNW 3.6 mph5.8 kmh 29.74 in1007.1 mb 0.00 in0.0 mm 0.00 in0.0 mm 0.00 in0.0 mm
11:20 AM 77.4°F25.2°C 59.0°F15.0°C 52% 2.3 mph NW3.7 kmh NW 3.6 mph5.8 kmh 29.74 in1007.1 mb 0.00 in0.0 mm 0.00 in0.0 mm 0.00 in0.0 mm
11:25 AM 80.1°F26.7°C 60.8°F16.0°C 51% 3.4 mph W5.5 kmh W 5.6 mph9.0 kmh 29.74 in1007.1 mb 0.00 in0.0 mm 0.00 in0.0 mm 0.00 in0.0 mm
11:30 AM 82.0°F27.8°C 60.8°F16.0°C 48% 3.3 mph W5.3 kmh W 5.6 mph9.0 kmh 29.74 in1007.1 mb 0.00 in0.0 mm 0.00 in0.0 mm 0.00 in0.0 mm
11:35 AM 81.9°F27.7°C 60.8°F16.0°C 48% 3.0 mph WSW4.8 kmh WSW 6.0 mph9.7 kmh 29.74 in1007.1 mb 0.00 in0.0 mm 0.00 in0.0 mm 0.00 in0.0 mm
11:40 AM 78.6°F25.9°C 59.0°F15.0°C 49% 3.5 mph WSW5.6 kmh WSW 6.0 mph9.7 kmh 29.74 in1007.1 mb 0.00 in0.0 mm 0.00 in0.0 mm 0.00 in0.0 mm
11:45 AM 76.5°F24.7°C 57.2°F14.0°C 51% 3.2 mph W5.1 kmh W 5.4 mph8.7 kmh 29.74 in1007.1 mb 0.00 in0.0 mm 0.00 in0.0 mm 0.00 in0.0 mm
11:50 AM 75.7°F24.3°C 57.2°F14.0°C 52% 3.4 mph W5.5 kmh W 4.9 mph7.9 kmh 29.74 in1007.1 mb 0.00 in0.0 mm 0.00 in0.0 mm 0.00 in0.0 mm
11:55 AM 75.7°F24.3°C 57.2°F14.0°C 52% 3.7 mph WNW6.0 kmh WNW 6.3 mph10.1 kmh 29.77 in1008.1 mb 0.00 in0.0 mm 0.00 in0.0 mm 0.00 in0.0 mm
12:00 PM 76.3°F24.6°C 57.2°F14.0°C 52% 2.7 mph W4.3 kmh W 6.3 mph10.1 kmh 29.77 in1008.1 mb 0.00 in0.0 mm 0.00 in0.0 mm 0.00 in0.0 mm
12:05 PM 75.9°F24.4°C 57.2°F14.0°C 51% 2.7 mph WSW4.3 kmh WSW 6.3 mph10.1 kmh 29.77 in1008.1 mb 0.00 in0.0 mm 0.00 in0.0 mm 0.00 in0.0 mm
12:10 PM 75.2°F24.0°C 55.4°F13.0°C 51% 2.8 mph W4.5 kmh W 3.6 mph5.8 kmh 29.77 in1008.1 mb 0.00 in0.0 mm 0.00 in0.0 mm 0.00 in0.0 mm
12:15 PM 75.2°F24.0°C 55.4°F13.0°C 51% 3.0 mph W4.8 kmh W 5.4 mph8.7 kmh 29.77 in1008.1 mb 0.00 in0.0 mm 0.00 in0.0 mm 0.00 in0.0 mm
12:20 PM 74.5°F23.6°C 55.4°F13.0°C 50% 2.9 mph W4.7 kmh W 5.4 mph8.7 kmh 29.77 in1008.1 mb 0.00 in0.0 mm 0.00 in0.0 mm 0.00 in0.0 mm
12:25 PM 74.8°F23.8°C 55.4°F13.0°C 51% 2.6 mph W4.2 kmh W 4.3 mph6.9 kmh 29.77 in1008.1 mb 0.00 in0.0 mm 0.00 in0.0 mm 0.00 in0.0 mm
12:30 PM 74.7°F23.7°C 55.4°F13.0°C 51% 2.4 mph WSW3.9 kmh WSW 4.0 mph6.4 kmh 29.77 in1008.1 mb 0.00 in0.0 mm 0.00 in0.0 mm 0.00 in0.0 mm
12:35 PM 76.3°F24.6°C 57.2°F14.0°C 51% 2.3 mph WSW3.7 kmh WSW 4.0 mph6.4 kmh 29.77 in1008.1 mb 0.00 in0.0 mm 0.00 in0.0 mm 0.00 in0.0 mm
12:40 PM 75.7°F24.3°C 55.4°F13.0°C 50% 2.2 mph WSW3.5 kmh WSW 4.3 mph6.9 kmh 29.77 in1008.1 mb 0.00 in0.0 mm 0.00 in0.0 mm 0.00 in0.0 mm
12:45 PM 75.0°F23.9°C 55.4°F13.0°C 50% 2.3 mph W3.7 kmh W 4.3 mph6.9 kmh 29.77 in1008.1 mb 0.00 in0.0 mm 0.00 in0.0 mm 0.00 in0.0 mm
12:50 PM 75.0°F23.9°C 55.4°F13.0°C 50% 2.2 mph W3.5 kmh W 3.8 mph6.1 kmh 29.77 in1008.1 mb 0.00 in0.0 mm 0.00 in0.0 mm 0.00 in0.0 mm
12:55 PM 75.6°F24.2°C 55.4°F13.0°C 50% 2.0 mph S3.2 kmh S 3.6 mph5.8 kmh 29.77 in1008.1 mb 0.00 in0.0 mm 0.00 in0.0 mm 0.00 in0.0 mm
01:00 PM 76.5°F24.7°C 57.2°F14.0°C 50% 2.0 mph S3.2 kmh S 3.6 mph5.8 kmh 29.77 in1008.1 mb 0.00 in0.0 mm 0.00 in0.0 mm 0.00 in0.0 mm
01:05 PM 78.8°F26.0°C 57.2°F14.0°C 48% 1.8 mph SSW2.9 kmh SSW 4.0 mph6.4 kmh 29.77 in1008.1 mb 0.00 in0.0 mm 0.00 in0.0 mm 0.00 in0.0 mm
01:10 PM 77.7°F25.4°C 57.2°F14.0°C 48% 1.9 mph S3.1 kmh S 4.0 mph6.4 kmh 29.77 in1008.1 mb 0.00 in0.0 mm 0.00 in0.0 mm 0.00 in0.0 mm
01:15 PM 78.1°F25.6°C 57.2°F14.0°C 48% 1.3 mph SE2.1 kmh SE 3.4 mph5.5 kmh 29.77 in1008.1 mb 0.00 in0.0 mm 0.00 in0.0 mm 0.00 in0.0 mm
01:20 PM 77.0°F25.0°C 57.2°F14.0°C 49% 1.9 mph W3.1 kmh W 4.0 mph6.4 kmh 29.77 in1008.1 mb 0.00 in0.0 mm 0.00 in0.0 mm 0.00 in0.0 mm
01:25 PM 77.5°F25.3°C 57.2°F14.0°C 48% 2.6 mph W4.2 kmh W 4.0 mph6.4 kmh 29.77 in1008.1 mb 0.00 in0.0 mm 0.00 in0.0 mm 0.00 in0.0 mm
01:30 PM 78.8°F26.0°C 57.2°F14.0°C 48% 2.5 mph WSW4.0 kmh WSW 4.3 mph6.9 kmh 29.77 in1008.1 mb 0.00 in0.0 mm 0.00 in0.0 mm 0.00 in0.0 mm
01:35 PM 80.8°F27.1°C 59.0°F15.0°C 47% 1.8 mph SW2.9 kmh SW 4.3 mph6.9 kmh 29.77 in1008.1 mb 0.00 in0.0 mm 0.00 in0.0 mm 0.00 in0.0 mm
01:40 PM 81.7°F27.6°C 59.0°F15.0°C 46% 2.0 mph SSW3.2 kmh SSW 3.8 mph6.1 kmh 29.77 in1008.1 mb 0.00 in0.0 mm 0.00 in0.0 mm 0.00 in0.0 mm
01:45 PM 81.0°F27.2°C 59.0°F15.0°C 46% 2.7 mph SW4.3 kmh SW 3.8 mph6.1 kmh 29.77 in1008.1 mb 0.00 in0.0 mm 0.00 in0.0 mm 0.00 in0.0 mm
01:50 PM 79.7°F26.5°C 59.0°F15.0°C 47% 3.6 mph WSW5.8 kmh WSW 6.5 mph10.5 kmh 29.77 in1008.1 mb 0.00 in0.0 mm 0.00 in0.0 mm 0.00 in0.0 mm
01:55 PM 79.3°F26.3°C 57.2°F14.0°C 47% 4.4 mph WSW7.1 kmh WSW 8.1 mph13.0 kmh 29.77 in1008.1 mb 0.00 in0.0 mm 0.00 in0.0 mm 0.00 in0.0 mm
02:00 PM 77.9°F25.5°C 57.2°F14.0°C 47% 3.6 mph WSW5.8 kmh WSW 8.1 mph13.0 kmh 29.77 in1008.1 mb 0.00 in0.0 mm 0.00 in0.0 mm 0.00 in0.0 mm
02:05 PM 77.2°F25.1°C 55.4°F13.0°C 47% 2.3 mph S3.7 kmh S 3.4 mph5.5 kmh 29.77 in1008.1 mb 0.00 in0.0 mm 0.00 in0.0 mm 0.00 in0.0 mm
02:10 PM 77.2°F25.1°C 55.4°F13.0°C 47% 1.6 mph S2.6 kmh S 3.4 mph5.5 kmh 29.77 in1008.1 mb 0.00 in0.0 mm 0.00 in0.0 mm 0.00 in0.0 mm
02:15 PM 78.1°F25.6°C 57.2°F14.0°C 47% 1.9 mph WSW3.1 kmh WSW 3.1 mph5.0 kmh 29.77 in1008.1 mb 0.00 in0.0 mm 0.00 in0.0 mm 0.00 in0.0 mm
02:20 PM 79.0°F26.1°C 57.2°F14.0°C 47% 2.2 mph W3.5 kmh W 3.4 mph5.5 kmh 29.77 in1008.1 mb 0.00 in0.0 mm 0.00 in0.0 mm 0.00 in0.0 mm
02:25 PM 77.7°F25.4°C 55.4°F13.0°C 46% 1.9 mph WNW3.1 kmh WNW 3.4 mph5.5 kmh 29.74 in1007.1 mb 0.00 in0.0 mm 0.00 in0.0 mm 0.00 in0.0 mm
02:30 PM 77.4°F25.2°C 55.4°F13.0°C 47% 2.4 mph NW3.9 kmh NW 3.4 mph5.5 kmh 29.74 in1007.1 mb 0.00 in0.0 mm 0.00 in0.0 mm 0.00 in0.0 mm
02:35 PM 77.4°F25.2°C 55.4°F13.0°C 47% 2.0 mph NW3.2 kmh NW 3.4 mph5.5 kmh 29.74 in1007.1 mb 0.00 in0.0 mm 0.00 in0.0 mm 0.00 in0.0 mm
02:40 PM 77.0°F25.0°C 55.4°F13.0°C 47% 1.5 mph NW2.4 kmh NW 3.1 mph5.0 kmh 29.77 in1008.1 mb 0.00 in0.0 mm 0.00 in0.0 mm 0.00 in0.0 mm
02:45 PM 77.0°F25.0°C 55.4°F13.0°C 47% 2.0 mph NW3.2 kmh NW 3.1 mph5.0 kmh 29.77 in1008.1 mb 0.00 in0.0 mm 0.00 in0.0 mm 0.00 in0.0 mm
02:50 PM 76.3°F24.6°C 55.4°F13.0°C 48% 2.6 mph W4.2 kmh W 3.6 mph5.8 kmh 29.77 in1008.1 mb 0.00 in0.0 mm 0.00 in0.0 mm 0.00 in0.0 mm
02:55 PM 76.1°F24.5°C 55.4°F13.0°C 48% 2.3 mph W3.7 kmh W 3.6 mph5.8 kmh 29.77 in1008.1 mb 0.00 in0.0 mm 0.00 in0.0 mm 0.00 in0.0 mm
03:00 PM 75.9°F24.4°C 55.4°F13.0°C 48% 1.6 mph WSW2.6 kmh WSW 3.6 mph5.8 kmh 29.77 in1008.1 mb 0.00 in0.0 mm 0.00 in0.0 mm 0.00 in0.0 mm
03:05 PM 78.4°F25.8°C 57.2°F14.0°C 47% 1.4 mph S2.3 kmh S 2.9 mph4.7 kmh 29.77 in1008.1 mb 0.00 in0.0 mm 0.00 in0.0 mm 0.00 in0.0 mm
03:10 PM 79.9°F26.6°C 59.0°F15.0°C 48% 3.7 mph E6.0 kmh E 9.8 mph15.8 kmh 29.77 in1008.1 mb 0.00 in0.0 mm 0.00 in0.0 mm 0.00 in0.0 mm
03:15 PM 79.3°F26.3°C 59.0°F15.0°C 48% 5.9 mph E9.5 kmh E 10.7 mph17.2 kmh 29.77 in1008.1 mb 0.00 in0.0 mm 0.00 in0.0 mm 0.00 in0.0 mm
03:20 PM 79.2°F26.2°C 59.0°F15.0°C 48% 5.5 mph E8.9 kmh E 10.7 mph17.2 kmh 29.77 in1008.1 mb 0.00 in0.0 mm 0.00 in0.0 mm 0.00 in0.0 mm
03:25 PM 78.4°F25.8°C 57.2°F14.0°C 49% 5.1 mph E8.2 kmh E 8.1 mph13.0 kmh 29.77 in1008.1 mb 0.00 in0.0 mm 0.00 in0.0 mm 0.00 in0.0 mm
03:30 PM 76.6°F24.8°C 57.2°F14.0°C 50% 4.8 mph E7.7 kmh E 8.1 mph13.0 kmh 29.77 in1008.1 mb 0.00 in0.0 mm 0.00 in0.0 mm 0.00 in0.0 mm
03:35 PM 78.3°F25.7°C 57.2°F14.0°C 49% 5.3 mph ESE8.5 kmh ESE 8.1 mph13.0 kmh 29.77 in1008.1 mb 0.00 in0.0 mm 0.00 in0.0 mm 0.00 in0.0 mm
03:40 PM 76.8°F24.9°C 57.2°F14.0°C 50% 6.1 mph ESE9.8 kmh ESE 10.5 mph16.9 kmh 29.77 in1008.1 mb 0.00 in0.0 mm 0.00 in0.0 mm 0.00 in0.0 mm
03:45 PM 75.2°F24.0°C 55.4°F13.0°C 51% 6.5 mph E10.5 kmh E 10.5 mph16.9 kmh 29.77 in1008.1 mb 0.00 in0.0 mm 0.00 in0.0 mm 0.00 in0.0 mm
03:50 PM 75.9°F24.4°C 57.2°F14.0°C 51% 5.4 mph E8.7 kmh E 9.8 mph15.8 kmh 29.77 in1008.1 mb 0.00 in0.0 mm 0.00 in0.0 mm 0.00 in0.0 mm
03:55 PM 75.7°F24.3°C 57.2°F14.0°C 51% 4.9 mph E7.9 kmh E 6.9 mph11.1 kmh 29.77 in1008.1 mb 0.00 in0.0 mm 0.00 in0.0 mm 0.00 in0.0 mm
04:00 PM 75.7°F24.3°C 57.2°F14.0°C 51% 4.5 mph E7.2 kmh E 6.9 mph11.1 kmh 29.77 in1008.1 mb 0.00 in0.0 mm 0.00 in0.0 mm 0.00 in0.0 mm
04:05 PM 75.7°F24.3°C 57.2°F14.0°C 51% 5.7 mph E9.2 kmh E 9.8 mph15.8 kmh 29.77 in1008.1 mb 0.00 in0.0 mm 0.00 in0.0 mm 0.00 in0.0 mm
04:10 PM 75.7°F24.3°C 57.2°F14.0°C 51% 6.7 mph E10.8 kmh E 9.8 mph15.8 kmh 29.77 in1008.1 mb 0.00 in0.0 mm 0.00 in0.0 mm 0.00 in0.0 mm
04:15 PM 75.0°F23.9°C 55.4°F13.0°C 51% 4.9 mph ESE7.9 kmh ESE 7.2 mph11.6 kmh 29.77 in1008.1 mb 0.00 in0.0 mm 0.00 in0.0 mm 0.00 in0.0 mm
04:20 PM 74.3°F23.5°C 55.4°F13.0°C 51% 4.3 mph E6.9 kmh E 6.0 mph9.7 kmh 29.77 in1008.1 mb 0.00 in0.0 mm 0.00 in0.0 mm 0.00 in0.0 mm
04:25 PM 73.6°F23.1°C 55.4°F13.0°C 51% 4.9 mph E7.9 kmh E 6.5 mph10.5 kmh 29.77 in1008.1 mb 0.00 in0.0 mm 0.00 in0.0 mm 0.00 in0.0 mm
04:30 PM 73.2°F22.9°C 55.4°F13.0°C 53% 5.0 mph E8.0 kmh E 7.4 mph11.9 kmh 29.77 in1008.1 mb 0.00 in0.0 mm 0.00 in0.0 mm 0.00 in0.0 mm
04:35 PM 72.9°F22.7°C 55.4°F13.0°C 53% 4.5 mph E7.2 kmh E 7.4 mph11.9 kmh 29.77 in1008.1 mb 0.00 in0.0 mm 0.00 in0.0 mm 0.00 in0.0 mm
04:40 PM 72.5°F22.5°C 55.4°F13.0°C 53% 4.6 mph ESE7.4 kmh ESE 8.5 mph13.7 kmh 29.77 in1008.1 mb 0.00 in0.0 mm 0.00 in0.0 mm 0.00 in0.0 mm
04:45 PM 72.5°F22.5°C 55.4°F13.0°C 53% 4.7 mph SE7.6 kmh SE 8.5 mph13.7 kmh 29.77 in1008.1 mb 0.00 in0.0 mm 0.00 in0.0 mm 0.00 in0.0 mm
04:50 PM 72.0°F22.2°C 55.4°F13.0°C 53% 4.6 mph ESE7.4 kmh ESE 6.3 mph10.1 kmh 29.77 in1008.1 mb 0.00 in0.0 mm 0.00 in0.0 mm 0.00 in0.0 mm
04:55 PM 72.0°F22.2°C 55.4°F13.0°C 54% 4.3 mph E6.9 kmh E 6.3 mph10.1 kmh 29.77 in1008.1 mb 0.00 in0.0 mm 0.00 in0.0 mm 0.00 in0.0 mm
05:00 PM 71.6°F22.0°C 55.4°F13.0°C 54% 4.7 mph E7.6 kmh E 6.7 mph10.8 kmh 29.77 in1008.1 mb 0.00 in0.0 mm 0.00 in0.0 mm 0.00 in0.0 mm
05:05 PM 71.2°F21.8°C 53.6°F12.0°C 54% 4.8 mph E7.7 kmh E 6.7 mph10.8 kmh 29.77 in1008.1 mb 0.00 in0.0 mm 0.00 in0.0 mm 0.00 in0.0 mm
05:10 PM 71.1°F21.7°C 53.6°F12.0°C 55% 4.9 mph E7.9 kmh E 8.5 mph13.7 kmh 29.77 in1008.1 mb 0.00 in0.0 mm 0.00 in0.0 mm 0.00 in0.0 mm
05:15 PM 71.2°F21.8°C 53.6°F12.0°C 55% 4.3 mph E6.9 kmh E 8.5 mph13.7 kmh 29.77 in1008.1 mb 0.00 in0.0 mm 0.00 in0.0 mm 0.00 in0.0 mm
05:20 PM 70.7°F21.5°C 53.6°F12.0°C 55% 4.4 mph ENE7.1 kmh ENE 6.0 mph9.7 kmh 29.77 in1008.1 mb 0.00 in0.0 mm 0.00 in0.0 mm 0.00 in0.0 mm
05:25 PM 70.5°F21.4°C 53.6°F12.0°C 55% 5.8 mph E9.3 kmh E 8.1 mph13.0 kmh 29.77 in1008.1 mb 0.00 in0.0 mm 0.00 in0.0 mm 0.00 in0.0 mm
05:30 PM 70.2°F21.2°C 53.6°F12.0°C 55% 7.2 mph E11.6 kmh E 9.6 mph15.4 kmh 29.77 in1008.1 mb 0.00 in0.0 mm 0.00 in0.0 mm 0.00 in0.0 mm
05:35 PM 69.6°F20.9°C 53.6°F12.0°C 56% 7.1 mph ENE11.4 kmh ENE 9.6 mph15.4 kmh 29.77 in1008.1 mb 0.00 in0.0 mm 0.00 in0.0 mm 0.00 in0.0 mm
05:40 PM 69.3°F20.7°C 53.6°F12.0°C 56% 6.3 mph NE10.1 kmh NE 9.8 mph15.8 kmh 29.77 in1008.1 mb 0.00 in0.0 mm 0.00 in0.0 mm 0.00 in0.0 mm
05:45 PM 68.9°F20.5°C 53.6°F12.0°C 56% 6.5 mph ENE10.5 kmh ENE 9.8 mph15.8 kmh 29.77 in1008.1 mb 0.00 in0.0 mm 0.00 in0.0 mm 0.00 in0.0 mm
05:50 PM 68.7°F20.4°C 51.8°F11.0°C 56% 5.9 mph ENE9.5 kmh ENE 7.4 mph11.9 kmh 29.77 in1008.1 mb 0.00 in0.0 mm 0.00 in0.0 mm 0.00 in0.0 mm
05:55 PM 68.4°F20.2°C 51.8°F11.0°C 56% 5.8 mph NE9.3 kmh NE 8.1 mph13.0 kmh 29.77 in1008.1 mb 0.00 in0.0 mm 0.00 in0.0 mm 0.00 in0.0 mm
06:00 PM 68.4°F20.2°C 51.8°F11.0°C 56% 5.8 mph ENE9.3 kmh ENE 8.1 mph13.0 kmh 29.77 in1008.1 mb 0.00 in0.0 mm 0.00 in0.0 mm 0.00 in0.0 mm
06:05 PM 68.2°F20.1°C 51.8°F11.0°C 57% 4.8 mph E7.7 kmh E 8.1 mph13.0 kmh 29.77 in1008.1 mb 0.00 in0.0 mm 0.00 in0.0 mm 0.00 in0.0 mm
06:10 PM 68.2°F20.1°C 51.8°F11.0°C 57% 4.8 mph E7.7 kmh E 8.1 mph13.0 kmh 29.77 in1008.1 mb 0.00 in0.0 mm 0.00 in0.0 mm 0.00 in0.0 mm
06:15 PM 67.8°F19.9°C 53.6°F12.0°C 58% 4.5 mph E7.2 kmh E 7.6 mph12.2 kmh 29.77 in1008.1 mb 0.00 in0.0 mm 0.00 in0.0 mm 0.00 in0.0 mm
06:20 PM 67.5°F19.7°C 51.8°F11.0°C 58% 4.0 mph E6.4 kmh E 6.3 mph10.1 kmh 29.77 in1008.1 mb 0.00 in0.0 mm 0.00 in0.0 mm 0.00 in0.0 mm
06:25 PM 67.5°F19.7°C 51.8°F11.0°C 58% 3.6 mph E5.8 kmh E 6.3 mph10.1 kmh 29.77 in1008.1 mb 0.00 in0.0 mm 0.00 in0.0 mm 0.00 in0.0 mm
06:30 PM 66.9°F19.4°C 51.8°F11.0°C 58% 4.3 mph ENE6.9 kmh ENE 7.4 mph11.9 kmh 29.77 in1008.1 mb 0.00 in0.0 mm 0.00 in0.0 mm 0.00 in0.0 mm
06:35 PM 66.9°F19.4°C 51.8°F11.0°C 59% 4.9 mph NE7.9 kmh NE 7.4 mph11.9 kmh 29.77 in1008.1 mb 0.00 in0.0 mm 0.00 in0.0 mm 0.00 in0.0 mm
06:40 PM 66.6°F19.2°C 51.8°F11.0°C 59% 4.5 mph ENE7.2 kmh ENE 7.2 mph11.6 kmh 29.77 in1008.1 mb 0.00 in0.0 mm 0.00 in0.0 mm 0.00 in0.0 mm
06:45 PM 66.4°F19.1°C 51.8°F11.0°C 59% 3.9 mph ENE6.3 kmh ENE 6.3 mph10.1 kmh 29.77 in1008.1 mb 0.00 in0.0 mm 0.00 in0.0 mm 0.00 in0.0 mm
06:50 PM 66.2°F19.0°C 51.8°F11.0°C 60% 4.2 mph E6.8 kmh E 7.8 mph12.6 kmh 29.77 in1008.1 mb 0.00 in0.0 mm 0.00 in0.0 mm 0.00 in0.0 mm
06:55 PM 66.2°F19.0°C 51.8°F11.0°C 60% 4.6 mph E7.4 kmh E 7.8 mph12.6 kmh 29.77 in1008.1 mb 0.00 in0.0 mm 0.00 in0.0 mm 0.00 in0.0 mm
07:00 PM 65.8°F18.8°C 51.8°F11.0°C 61% 4.6 mph E7.4 kmh E 5.8 mph9.3 kmh 29.77 in1008.1 mb 0.00 in0.0 mm 0.00 in0.0 mm 0.00 in0.0 mm
07:05 PM 65.5°F18.6°C 51.8°F11.0°C 62% 4.0 mph E6.4 kmh E 5.8 mph9.3 kmh 29.77 in1008.1 mb 0.00 in0.0 mm 0.00 in0.0 mm 0.00 in0.0 mm
07:10 PM 65.1°F18.4°C 51.8°F11.0°C 62% 3.7 mph E6.0 kmh E 5.8 mph9.3 kmh 29.77 in1008.1 mb 0.00 in0.0 mm 0.00 in0.0 mm 0.00 in0.0 mm
07:15 PM 64.8°F18.2°C 51.8°F11.0°C 62% 4.1 mph ENE6.6 kmh ENE 5.4 mph8.7 kmh 29.77 in1008.1 mb 0.00 in0.0 mm 0.00 in0.0 mm 0.00 in0.0 mm
07:20 PM 64.8°F18.2°C 51.8°F11.0°C 63% 4.0 mph ENE6.4 kmh ENE 4.3 mph6.9 kmh 29.77 in1008.1 mb 0.00 in0.0 mm 0.00 in0.0 mm 0.00 in0.0 mm
07:25 PM 64.6°F18.1°C 51.8°F11.0°C 63% 3.7 mph E6.0 kmh E 4.3 mph6.9 kmh 29.77 in1008.1 mb 0.00 in0.0 mm 0.00 in0.0 mm 0.00 in0.0 mm
07:30 PM 64.4°F18.0°C 51.8°F11.0°C 63% 3.2 mph E5.1 kmh E 4.3 mph6.9 kmh 29.77 in1008.1 mb 0.00 in0.0 mm 0.00 in0.0 mm 0.00 in0.0 mm
07:35 PM 64.2°F17.9°C 51.8°F11.0°C 64% 2.9 mph E4.7 kmh E 3.4 mph5.5 kmh 29.77 in1008.1 mb 0.00 in0.0 mm 0.00 in0.0 mm 0.00 in0.0 mm
07:40 PM 63.9°F17.7°C 51.8°F11.0°C 64% 3.1 mph E5.0 kmh E 3.4 mph5.5 kmh 29.80 in1009.1 mb 0.00 in0.0 mm 0.00 in0.0 mm 0.00 in0.0 mm
07:45 PM 63.7°F17.6°C 51.8°F11.0°C 64% 3.7 mph E6.0 kmh E 6.5 mph10.5 kmh 29.80 in1009.1 mb 0.00 in0.0 mm 0.00 in0.0 mm 0.00 in0.0 mm
07:50 PM 63.3°F17.4°C 51.8°F11.0°C 64% 3.7 mph E6.0 kmh E 6.5 mph10.5 kmh 29.80 in1009.1 mb 0.00 in0.0 mm 0.00 in0.0 mm 0.00 in0.0 mm
07:55 PM 63.1°F17.3°C 51.8°F11.0°C 64% 4.2 mph E6.8 kmh E 6.5 mph10.5 kmh 29.80 in1009.1 mb 0.00 in0.0 mm 0.00 in0.0 mm 0.00 in0.0 mm
08:00 PM 62.8°F17.1°C 51.8°F11.0°C 65% 4.2 mph E6.8 kmh E 6.5 mph10.5 kmh 29.80 in1009.1 mb 0.00 in0.0 mm 0.00 in0.0 mm 0.00 in0.0 mm
08:05 PM 62.8°F17.1°C 51.8°F11.0°C 65% 3.6 mph E5.8 kmh E 4.9 mph7.9 kmh 29.80 in1009.1 mb 0.00 in0.0 mm 0.00 in0.0 mm 0.00 in0.0 mm
08:10 PM 62.4°F16.9°C 51.8°F11.0°C 67% 3.8 mph E6.1 kmh E 5.6 mph9.0 kmh 29.80 in1009.1 mb 0.00 in0.0 mm 0.00 in0.0 mm 0.00 in0.0 mm
08:15 PM 62.2°F16.8°C 51.8°F11.0°C 67% 3.8 mph E6.1 kmh E 5.6 mph9.0 kmh 29.80 in1009.1 mb 0.00 in0.0 mm 0.00 in0.0 mm 0.00 in0.0 mm
08:20 PM 62.2°F16.8°C 51.8°F11.0°C 67% 3.4 mph E5.5 kmh E 6.5 mph10.5 kmh 29.80 in1009.1 mb 0.00 in0.0 mm 0.00 in0.0 mm 0.00 in0.0 mm
08:25 PM 62.1°F16.7°C 51.8°F11.0°C 68% 3.5 mph ENE5.6 kmh ENE 6.5 mph10.5 kmh 29.80 in1009.1 mb 0.00 in0.0 mm 0.00 in0.0 mm 0.00 in0.0 mm
08:30 PM 61.9°F16.6°C 51.8°F11.0°C 68% 3.8 mph ENE6.1 kmh ENE 5.4 mph8.7 kmh 29.80 in1009.1 mb 0.00 in0.0 mm 0.00 in0.0 mm 0.00 in0.0 mm
08:35 PM 61.9°F16.6°C 51.8°F11.0°C 68% 3.9 mph ENE6.3 kmh ENE 5.4 mph8.7 kmh 29.80 in1009.1 mb 0.00 in0.0 mm 0.00 in0.0 mm 0.00 in0.0 mm
08:40 PM 61.7°F16.5°C 51.8°F11.0°C 68% 4.2 mph NE6.8 kmh NE 8.5 mph13.7 kmh 29.77 in1008.1 mb 0.00 in0.0 mm 0.00 in0.0 mm 0.00 in0.0 mm
08:45 PM 61.5°F16.4°C 51.8°F11.0°C 69% 4.1 mph NE6.6 kmh NE 8.5 mph13.7 kmh 29.77 in1008.1 mb 0.00 in0.0 mm 0.00 in0.0 mm 0.00 in0.0 mm
08:50 PM 61.3°F16.3°C 51.8°F11.0°C 69% 5.1 mph ENE8.2 kmh ENE 8.5 mph13.7 kmh 29.77 in1008.1 mb 0.00 in0.0 mm 0.00 in0.0 mm 0.00 in0.0 mm
08:55 PM 61.3°F16.3°C 51.8°F11.0°C 69% 5.8 mph NE9.3 kmh NE 8.5 mph13.7 kmh 29.77 in1008.1 mb 0.00 in0.0 mm 0.00 in0.0 mm 0.00 in0.0 mm
09:00 PM 61.2°F16.2°C 51.8°F11.0°C 70% 5.0 mph ENE8.0 kmh ENE 8.5 mph13.7 kmh 29.77 in1008.1 mb 0.00 in0.0 mm 0.00 in0.0 mm 0.00 in0.0 mm
09:05 PM 61.0°F16.1°C 51.8°F11.0°C 70% 4.6 mph E7.4 kmh E 6.5 mph10.5 kmh 29.77 in1008.1 mb 0.00 in0.0 mm 0.00 in0.0 mm 0.00 in0.0 mm
09:10 PM 61.0°F16.1°C 51.8°F11.0°C 70% 5.8 mph ENE9.3 kmh ENE 8.7 mph14.0 kmh 29.77 in1008.1 mb 0.00 in0.0 mm 0.00 in0.0 mm 0.00 in0.0 mm
09:15 PM 61.0°F16.1°C 51.8°F11.0°C 71% 5.8 mph ENE9.3 kmh ENE 8.7 mph14.0 kmh 29.77 in1008.1 mb 0.00 in0.0 mm 0.00 in0.0 mm 0.00 in0.0 mm
09:20 PM 60.8°F16.0°C 51.8°F11.0°C 70% 4.2 mph E6.8 kmh E 6.0 mph9.7 kmh 29.77 in1008.1 mb 0.00 in0.0 mm 0.00 in0.0 mm 0.00 in0.0 mm
09:25 PM 60.8°F16.0°C 51.8°F11.0°C 71% 3.7 mph ENE6.0 kmh ENE 5.6 mph9.0 kmh 29.77 in1008.1 mb 0.00 in0.0 mm 0.00 in0.0 mm 0.00 in0.0 mm
09:30 PM 60.8°F16.0°C 51.8°F11.0°C 71% 4.3 mph NE6.9 kmh NE 5.6 mph9.0 kmh 29.77 in1008.1 mb 0.00 in0.0 mm 0.00 in0.0 mm 0.00 in0.0 mm
09:35 PM 60.8°F16.0°C 51.8°F11.0°C 71% 4.5 mph NE7.2 kmh NE 6.0 mph9.7 kmh 29.77 in1008.1 mb 0.00 in0.0 mm 0.00 in0.0 mm 0.00 in0.0 mm
09:40 PM 60.6°F15.9°C 51.8°F11.0°C 72% 4.4 mph ENE7.1 kmh ENE 6.5 mph10.5 kmh 29.77 in1008.1 mb 0.00 in0.0 mm 0.00 in0.0 mm 0.00 in0.0 mm
09:45 PM 60.4°F15.8°C 51.8°F11.0°C 72% 4.0 mph E6.4 kmh E 6.5 mph10.5 kmh 29.77 in1008.1 mb 0.00 in0.0 mm 0.00 in0.0 mm 0.00 in0.0 mm
09:50 PM 60.4°F15.8°C 51.8°F11.0°C 72% 3.2 mph E5.1 kmh E 4.9 mph7.9 kmh 29.77 in1008.1 mb 0.00 in0.0 mm 0.00 in0.0 mm 0.00 in0.0 mm
09:55 PM 60.3°F15.7°C 51.8°F11.0°C 72% 3.2 mph E5.1 kmh E 5.8 mph9.3 kmh 29.77 in1008.1 mb 0.00 in0.0 mm 0.00 in0.0 mm 0.00 in0.0 mm
10:00 PM 60.3°F15.7°C 51.8°F11.0°C 72% 3.4 mph E5.5 kmh E 5.8 mph9.3 kmh 29.77 in1008.1 mb 0.00 in0.0 mm 0.00 in0.0 mm 0.00 in0.0 mm
10:05 PM 60.1°F15.6°C 51.8°F11.0°C 72% 3.6 mph E5.8 kmh E 5.8 mph9.3 kmh 29.77 in1008.1 mb 0.00 in0.0 mm 0.00 in0.0 mm 0.00 in0.0 mm
10:10 PM 60.1°F15.6°C 51.8°F11.0°C 73% 4.0 mph E6.4 kmh E 6.9 mph11.1 kmh 29.77 in1008.1 mb 0.00 in0.0 mm 0.00 in0.0 mm 0.00 in0.0 mm
10:15 PM 59.9°F15.5°C 51.8°F11.0°C 73% 4.2 mph E6.8 kmh E 6.9 mph11.1 kmh 29.77 in1008.1 mb 0.00 in0.0 mm 0.00 in0.0 mm 0.00 in0.0 mm
10:20 PM 59.9°F15.5°C 51.8°F11.0°C 73% 4.5 mph E7.2 kmh E 7.4 mph11.9 kmh 29.77 in1008.1 mb 0.00 in0.0 mm 0.00 in0.0 mm 0.00 in0.0 mm
10:25 PM 59.9°F15.5°C 51.8°F11.0°C 73% 4.4 mph E7.1 kmh E 7.4 mph11.9 kmh 29.77 in1008.1 mb 0.00 in0.0 mm 0.00 in0.0 mm 0.00 in0.0 mm
10:30 PM 59.9°F15.5°C 51.8°F11.0°C 73% 4.0 mph E6.4 kmh E 6.0 mph9.7 kmh 29.77 in1008.1 mb 0.00 in0.0 mm 0.00 in0.0 mm 0.00 in0.0 mm
10:35 PM 59.7°F15.4°C 51.8°F11.0°C 73% 3.5 mph E5.6 kmh E 6.0 mph9.7 kmh 29.77 in1008.1 mb 0.00 in0.0 mm 0.00 in0.0 mm 0.00 in0.0 mm
10:40 PM 59.5°F15.3°C 51.8°F11.0°C 72% 3.3 mph E5.3 kmh E 4.9 mph7.9 kmh 29.77 in1008.1 mb 0.00 in0.0 mm 0.00 in0.0 mm 0.00 in0.0 mm
10:45 PM 59.5°F15.3°C 51.8°F11.0°C 73% 3.6 mph E5.8 kmh E 4.9 mph7.9 kmh 29.77 in1008.1 mb 0.00 in0.0 mm 0.00 in0.0 mm 0.00 in0.0 mm
10:50 PM 59.5°F15.3°C 51.8°F11.0°C 73% 3.8 mph E6.1 kmh E 5.4 mph8.7 kmh 29.77 in1008.1 mb 0.00 in0.0 mm 0.00 in0.0 mm 0.00 in0.0 mm
10:55 PM 59.4°F15.2°C 51.8°F11.0°C 72% 4.0 mph E6.4 kmh E 5.4 mph8.7 kmh 29.77 in1008.1 mb 0.00 in0.0 mm 0.00 in0.0 mm 0.00 in0.0 mm
11:00 PM 59.4°F15.2°C 51.8°F11.0°C 72% 3.7 mph E6.0 kmh E 5.4 mph8.7 kmh 29.77 in1008.1 mb 0.00 in0.0 mm 0.00 in0.0 mm 0.00 in0.0 mm
11:05 PM 59.5°F15.3°C 51.8°F11.0°C 73% 4.1 mph E6.6 kmh E 6.3 mph10.1 kmh 29.77 in1008.1 mb 0.00 in0.0 mm 0.00 in0.0 mm 0.00 in0.0 mm
11:10 PM 59.5°F15.3°C 51.8°F11.0°C 73% 4.2 mph ENE6.8 kmh ENE 6.3 mph10.1 kmh 29.74 in1007.1 mb 0.00 in0.0 mm 0.00 in0.0 mm 0.00 in0.0 mm
11:15 PM 59.5°F15.3°C 51.8°F11.0°C 73% 3.4 mph ENE5.5 kmh ENE 6.3 mph10.1 kmh 29.74 in1007.1 mb 0.00 in0.0 mm 0.00 in0.0 mm 0.00 in0.0 mm
11:20 PM 59.5°F15.3°C 51.8°F11.0°C 73% 3.5 mph ENE5.6 kmh ENE 7.8 mph12.6 kmh 29.74 in1007.1 mb 0.00 in0.0 mm 0.00 in0.0 mm 0.00 in0.0 mm
11:25 PM 59.5°F15.3°C 51.8°F11.0°C 73% 4.3 mph ENE6.9 kmh ENE 7.8 mph12.6 kmh 29.74 in1007.1 mb 0.00 in0.0 mm 0.00 in0.0 mm 0.00 in0.0 mm
11:30 PM 59.7°F15.4°C 51.8°F11.0°C 72% 5.3 mph E8.5 kmh E 7.8 mph12.6 kmh 29.74 in1007.1 mb 0.00 in0.0 mm 0.00 in0.0 mm 0.00 in0.0 mm
11:35 PM 59.7°F15.4°C 51.8°F11.0°C 72% 4.8 mph E7.7 kmh E 6.5 mph10.5 kmh 29.74 in1007.1 mb 0.00 in0.0 mm 0.00 in0.0 mm 0.00 in0.0 mm
11:40 PM 59.7°F15.4°C 51.8°F11.0°C 72% 4.4 mph ENE7.1 kmh ENE 6.5 mph10.5 kmh 29.74 in1007.1 mb 0.00 in0.0 mm 0.00 in0.0 mm 0.00 in0.0 mm
11:45 PM 59.9°F15.5°C 51.8°F11.0°C 72% 3.9 mph NE6.3 kmh NE 6.3 mph10.1 kmh 29.74 in1007.1 mb 0.00 in0.0 mm 0.00 in0.0 mm 0.00 in0.0 mm
11:50 PM 59.9°F15.5°C 51.8°F11.0°C 72% 4.2 mph ENE6.8 kmh ENE 6.3 mph10.1 kmh 29.74 in1007.1 mb 0.00 in0.0 mm 0.00 in0.0 mm 0.00 in0.0 mm
11:55 PM 59.9°F15.5°C 51.8°F11.0°C 72% 4.8 mph ENE7.7 kmh ENE 9.8 mph15.8 kmh 29.74 in1007.1 mb 0.00 in0.0 mm 0.00 in0.0 mm 0.00 in0.0 mm